sensor_id;sensor_type;location;lat;lon;timestamp;P1;durP1;ratioP1;P2;durP2;ratioP2
10535;SDS011;5316;49.538;8.352;2023-03-16T01:20:32;10.17;;;8.67;;
10535;SDS011;5316;49.538;8.352;2023-03-16T01:47:27;8.80;;;7.47;;
10535;SDS011;5316;49.538;8.352;2023-03-16T01:49:55;10.97;;;8.57;;
10535;SDS011;5316;49.538;8.352;2023-03-16T01:52:24;11.07;;;8.80;;
10535;SDS011;5316;49.538;8.352;2023-03-16T02:31:19;11.43;;;9.97;;
10535;SDS011;5316;49.538;8.352;2023-03-16T02:33:47;12.43;;;10.60;;
10535;SDS011;5316;49.538;8.352;2023-03-16T02:36:16;11.40;;;10.20;;
10535;SDS011;5316;49.538;8.352;2023-03-16T02:38:46;11.47;;;10.20;;
10535;SDS011;5316;49.538;8.352;2023-03-16T02:44:06;12.23;;;10.30;;
10535;SDS011;5316;49.538;8.352;2023-03-16T02:46:42;11.23;;;10.00;;
10535;SDS011;5316;49.538;8.352;2023-03-16T02:49:11;12.80;;;11.13;;
10535;SDS011;5316;49.538;8.352;2023-03-16T02:51:43;12.40;;;11.03;;
10535;SDS011;5316;49.538;8.352;2023-03-16T02:54:14;12.53;;;10.90;;
10535;SDS011;5316;49.538;8.352;2023-03-16T02:56:43;12.77;;;10.87;;
10535;SDS011;5316;49.538;8.352;2023-03-16T02:59:14;11.87;;;10.57;;
10535;SDS011;5316;49.538;8.352;2023-03-16T03:01:43;13.30;;;11.17;;
10535;SDS011;5316;49.538;8.352;2023-03-16T03:04:10;12.67;;;11.37;;
10535;SDS011;5316;49.538;8.352;2023-03-16T03:06:40;12.97;;;11.57;;
10535;SDS011;5316;49.538;8.352;2023-03-16T03:12:20;12.97;;;11.00;;
10535;SDS011;5316;49.538;8.352;2023-03-16T03:14:48;13.53;;;12.13;;
10535;SDS011;5316;49.538;8.352;2023-03-16T03:17:19;14.23;;;11.93;;
10535;SDS011;5316;49.538;8.352;2023-03-16T03:19:54;16.57;;;12.40;;
10535;SDS011;5316;49.538;8.352;2023-03-16T03:22:23;12.90;;;11.40;;
10535;SDS011;5316;49.538;8.352;2023-03-16T03:24:53;13.17;;;11.47;;
10535;SDS011;5316;49.538;8.352;2023-03-16T03:27:20;14.90;;;12.63;;
10535;SDS011;5316;49.538;8.352;2023-03-16T03:32:39;14.40;;;11.27;;
10535;SDS011;5316;49.538;8.352;2023-03-16T03:35:11;15.07;;;11.13;;
10535;SDS011;5316;49.538;8.352;2023-03-16T04:37:24;15.13;;;11.57;;
10535;SDS011;5316;49.538;8.352;2023-03-16T04:39:53;15.07;;;11.97;;
10535;SDS011;5316;49.538;8.352;2023-03-16T04:42:21;14.20;;;12.00;;
10535;SDS011;5316;49.538;8.352;2023-03-16T04:44:48;16.17;;;12.67;;
10535;SDS011;5316;49.538;8.352;2023-03-16T04:47:38;18.20;;;12.27;;
10535;SDS011;5316;49.538;8.352;2023-03-16T04:50:07;16.10;;;13.07;;
10535;SDS011;5316;49.538;8.352;2023-03-16T04:52:39;16.53;;;13.27;;
10535;SDS011;5316;49.538;8.352;2023-03-16T04:55:07;15.13;;;13.13;;
10535;SDS011;5316;49.538;8.352;2023-03-16T05:00:35;17.40;;;13.43;;
10535;SDS011;5316;49.538;8.352;2023-03-16T05:03:02;15.87;;;13.03;;
10535;SDS011;5316;49.538;8.352;2023-03-16T05:05:30;20.07;;;13.43;;
10535;SDS011;5316;49.538;8.352;2023-03-16T05:07:58;15.77;;;13.07;;
10535;SDS011;5316;49.538;8.352;2023-03-16T05:10:26;15.97;;;13.10;;
10535;SDS011;5316;49.538;8.352;2023-03-16T05:12:53;14.30;;;12.60;;
10535;SDS011;5316;49.538;8.352;2023-03-16T05:15:20;15.37;;;12.80;;
10535;SDS011;5316;49.538;8.352;2023-03-16T05:17:47;17.83;;;13.87;;
10535;SDS011;5316;49.538;8.352;2023-03-16T05:20:15;16.30;;;12.73;;
10535;SDS011;5316;49.538;8.352;2023-03-16T05:22:45;17.73;;;12.17;;
10535;SDS011;5316;49.538;8.352;2023-03-16T05:25:16;18.17;;;13.50;;
10535;SDS011;5316;49.538;8.352;2023-03-16T05:27:45;18.37;;;13.67;;
10535;SDS011;5316;49.538;8.352;2023-03-16T05:30:14;17.43;;;13.80;;
10535;SDS011;5316;49.538;8.352;2023-03-16T05:32:46;16.30;;;14.17;;
10535;SDS011;5316;49.538;8.352;2023-03-16T05:35:13;17.60;;;13.50;;
10535;SDS011;5316;49.538;8.352;2023-03-16T05:37:40;18.97;;;13.93;;
10535;SDS011;5316;49.538;8.352;2023-03-16T05:40:09;16.23;;;13.83;;
10535;SDS011;5316;49.538;8.352;2023-03-16T05:42:45;16.73;;;13.27;;
10535;SDS011;5316;49.538;8.352;2023-03-16T05:45:14;22.37;;;15.20;;
10535;SDS011;5316;49.538;8.352;2023-03-16T05:47:46;16.87;;;12.87;;
10535;SDS011;5316;49.538;8.352;2023-03-16T05:50:15;17.77;;;13.57;;
10535;SDS011;5316;49.538;8.352;2023-03-16T05:52:43;17.63;;;13.13;;
10535;SDS011;5316;49.538;8.352;2023-03-16T05:55:14;14.63;;;12.33;;
10535;SDS011;5316;49.538;8.352;2023-03-16T05:57:45;16.93;;;12.70;;
10535;SDS011;5316;49.538;8.352;2023-03-16T06:00:15;15.17;;;12.50;;
10535;SDS011;5316;49.538;8.352;2023-03-16T06:02:53;17.83;;;14.13;;
10535;SDS011;5316;49.538;8.352;2023-03-16T06:05:22;17.93;;;14.20;;
10535;SDS011;5316;49.538;8.352;2023-03-16T06:07:56;25.57;;;17.43;;
10535;SDS011;5316;49.538;8.352;2023-03-16T06:10:27;20.43;;;14.87;;
10535;SDS011;5316;49.538;8.352;2023-03-16T06:12:56;25.50;;;17.93;;
10535;SDS011;5316;49.538;8.352;2023-03-16T06:15:29;20.20;;;14.53;;
10535;SDS011;5316;49.538;8.352;2023-03-16T06:17:59;18.20;;;13.73;;
10535;SDS011;5316;49.538;8.352;2023-03-16T06:20:36;19.40;;;15.07;;
10535;SDS011;5316;49.538;8.352;2023-03-16T07:04:48;22.77;;;15.93;;
10535;SDS011;5316;49.538;8.352;2023-03-16T07:07:15;24.43;;;18.27;;
10535;SDS011;5316;49.538;8.352;2023-03-16T07:09:45;54.10;;;34.57;;
10535;SDS011;5316;49.538;8.352;2023-03-16T07:29:29;19.23;;;15.27;;
10535;SDS011;5316;49.538;8.352;2023-03-16T07:31:57;17.80;;;15.27;;
10535;SDS011;5316;49.538;8.352;2023-03-16T07:34:24;18.97;;;14.63;;
10535;SDS011;5316;49.538;8.352;2023-03-16T07:36:53;20.67;;;15.27;;
10535;SDS011;5316;49.538;8.352;2023-03-16T07:39:23;18.83;;;15.10;;
10535;SDS011;5316;49.538;8.352;2023-03-16T07:41:56;18.97;;;14.87;;
10535;SDS011;5316;49.538;8.352;2023-03-16T07:44:30;19.00;;;14.67;;
10535;SDS011;5316;49.538;8.352;2023-03-16T07:47:00;17.80;;;15.07;;
10535;SDS011;5316;49.538;8.352;2023-03-16T07:49:27;17.23;;;14.20;;
10535;SDS011;5316;49.538;8.352;2023-03-16T07:51:56;16.53;;;14.43;;
10535;SDS011;5316;49.538;8.352;2023-03-16T07:54:24;17.17;;;14.37;;
10535;SDS011;5316;49.538;8.352;2023-03-16T07:56:54;18.00;;;14.73;;
10535;SDS011;5316;49.538;8.352;2023-03-16T07:59:22;18.23;;;15.00;;
10535;SDS011;5316;49.538;8.352;2023-03-16T08:01:51;45.23;;;32.30;;
10535;SDS011;5316;49.538;8.352;2023-03-16T08:04:18;25.80;;;17.27;;
10535;SDS011;5316;49.538;8.352;2023-03-16T08:06:46;15.60;;;14.00;;
10535;SDS011;5316;49.538;8.352;2023-03-16T08:09:15;17.20;;;14.30;;
10535;SDS011;5316;49.538;8.352;2023-03-16T08:11:43;20.07;;;15.23;;
10535;SDS011;5316;49.538;8.352;2023-03-16T08:17:08;21.20;;;14.37;;
10535;SDS011;5316;49.538;8.352;2023-03-16T08:19:39;19.97;;;13.37;;
10535;SDS011;5316;49.538;8.352;2023-03-16T08:22:10;17.83;;;13.17;;
10535;SDS011;5316;49.538;8.352;2023-03-16T08:24:40;21.37;;;17.13;;
10535;SDS011;5316;49.538;8.352;2023-03-16T08:27:11;16.57;;;13.77;;
10535;SDS011;5316;49.538;8.352;2023-03-16T08:29:56;14.33;;;12.50;;
10535;SDS011;5316;49.538;8.352;2023-03-16T08:32:30;14.83;;;13.23;;
10535;SDS011;5316;49.538;8.352;2023-03-16T08:35:04;15.70;;;13.03;;
10535;SDS011;5316;49.538;8.352;2023-03-16T08:37:55;15.10;;;13.00;;
10535;SDS011;5316;49.538;8.352;2023-03-16T08:40:24;14.17;;;12.63;;
10535;SDS011;5316;49.538;8.352;2023-03-16T08:43:02;16.53;;;12.97;;
10535;SDS011;5316;49.538;8.352;2023-03-16T08:45:30;15.63;;;13.17;;
10535;SDS011;5316;49.538;8.352;2023-03-16T08:48:02;14.60;;;12.77;;
10535;SDS011;5316;49.538;8.352;2023-03-16T08:50:47;13.73;;;12.33;;
10535;SDS011;5316;49.538;8.352;2023-03-16T08:53:42;15.43;;;12.47;;
10535;SDS011;5316;49.538;8.352;2023-03-16T08:56:14;15.10;;;12.13;;
10535;SDS011;5316;49.538;8.352;2023-03-16T08:59:00;106.47;;;23.60;;
10535;SDS011;5316;49.538;8.352;2023-03-16T09:01:30;31.43;;;13.63;;
10535;SDS011;5316;49.538;8.352;2023-03-16T09:49:36;9.23;;;7.70;;
10535;SDS011;5316;49.538;8.352;2023-03-16T09:52:56;8.67;;;6.67;;
10535;SDS011;5316;49.538;8.352;2023-03-16T09:59:27;9.57;;;8.10;;
10535;SDS011;5316;49.538;8.352;2023-03-16T10:02:18;11.17;;;8.00;;
10535;SDS011;5316;49.538;8.352;2023-03-16T10:18:24;6.57;;;5.97;;
10535;SDS011;5316;49.538;8.352;2023-03-16T10:20:59;6.50;;;5.90;;
10535;SDS011;5316;49.538;8.352;2023-03-16T10:23:40;6.60;;;6.00;;
10535;SDS011;5316;49.538;8.352;2023-03-16T10:26:11;6.13;;;5.63;;
10535;SDS011;5316;49.538;8.352;2023-03-16T10:28:41;7.17;;;6.57;;
10535;SDS011;5316;49.538;8.352;2023-03-16T10:31:09;6.60;;;5.83;;
10535;SDS011;5316;49.538;8.352;2023-03-16T10:33:39;7.90;;;6.63;;
10535;SDS011;5316;49.538;8.352;2023-03-16T10:36:11;6.80;;;6.10;;
10535;SDS011;5316;49.538;8.352;2023-03-16T10:38:41;7.67;;;6.97;;
10535;SDS011;5316;49.538;8.352;2023-03-16T10:41:19;7.70;;;6.90;;
10535;SDS011;5316;49.538;8.352;2023-03-16T10:43:50;6.60;;;6.10;;
10535;SDS011;5316;49.538;8.352;2023-03-16T10:46:19;6.50;;;5.83;;
10535;SDS011;5316;49.538;8.352;2023-03-16T10:48:51;6.17;;;5.53;;
10535;SDS011;5316;49.538;8.352;2023-03-16T10:51:24;6.47;;;5.90;;
10535;SDS011;5316;49.538;8.352;2023-03-16T10:53:55;7.93;;;6.27;;
10535;SDS011;5316;49.538;8.352;2023-03-16T10:56:30;7.17;;;6.50;;
10535;SDS011;5316;49.538;8.352;2023-03-16T10:58:59;8.33;;;6.07;;
10535;SDS011;5316;49.538;8.352;2023-03-16T11:01:27;6.87;;;6.17;;
10535;SDS011;5316;49.538;8.352;2023-03-16T11:03:58;6.77;;;6.07;;
10535;SDS011;5316;49.538;8.352;2023-03-16T11:06:27;6.17;;;5.33;;
10535;SDS011;5316;49.538;8.352;2023-03-16T11:09:01;6.00;;;5.40;;
10535;SDS011;5316;49.538;8.352;2023-03-16T11:11:32;5.57;;;5.07;;
10535;SDS011;5316;49.538;8.352;2023-03-16T11:14:02;8.10;;;5.30;;
10535;SDS011;5316;49.538;8.352;2023-03-16T11:16:38;7.23;;;5.67;;
10535;SDS011;5316;49.538;8.352;2023-03-16T11:19:13;5.57;;;5.03;;
10535;SDS011;5316;49.538;8.352;2023-03-16T11:21:46;17.30;;;11.90;;
10535;SDS011;5316;49.538;8.352;2023-03-16T11:24:21;6.87;;;5.87;;
10535;SDS011;5316;49.538;8.352;2023-03-16T11:26:52;5.30;;;4.90;;
10535;SDS011;5316;49.538;8.352;2023-03-16T11:29:21;5.40;;;4.90;;
10535;SDS011;5316;49.538;8.352;2023-03-16T11:32:07;8.63;;;4.70;;
10535;SDS011;5316;49.538;8.352;2023-03-16T11:34:38;6.00;;;5.10;;
10535;SDS011;5316;49.538;8.352;2023-03-16T11:37:09;5.57;;;4.70;;
10535;SDS011;5316;49.538;8.352;2023-03-16T11:39:47;8.67;;;7.77;;
10535;SDS011;5316;49.538;8.352;2023-03-16T11:42:26;5.77;;;4.90;;
10535;SDS011;5316;49.538;8.352;2023-03-16T11:44:58;4.80;;;4.27;;
10535;SDS011;5316;49.538;8.352;2023-03-16T11:47:43;5.37;;;4.80;;
10535;SDS011;5316;49.538;8.352;2023-03-16T11:50:27;4.40;;;4.00;;
10535;SDS011;5316;49.538;8.352;2023-03-16T11:53:00;4.20;;;3.80;;
10535;SDS011;5316;49.538;8.352;2023-03-16T11:55:38;5.93;;;4.37;;
10535;SDS011;5316;49.538;8.352;2023-03-16T11:58:15;5.67;;;4.50;;
10535;SDS011;5316;49.538;8.352;2023-03-16T12:00:57;4.57;;;4.17;;
10535;SDS011;5316;49.538;8.352;2023-03-16T12:03:44;5.83;;;4.80;;
10535;SDS011;5316;49.538;8.352;2023-03-16T12:06:35;4.47;;;3.87;;
10535;SDS011;5316;49.538;8.352;2023-03-16T12:09:23;5.63;;;5.00;;
10535;SDS011;5316;49.538;8.352;2023-03-16T12:12:02;5.47;;;4.20;;
10535;SDS011;5316;49.538;8.352;2023-03-16T12:14:40;4.17;;;3.90;;
10535;SDS011;5316;49.538;8.352;2023-03-16T12:17:12;5.53;;;4.20;;
10535;SDS011;5316;49.538;8.352;2023-03-16T12:19:44;4.17;;;3.73;;
10535;SDS011;5316;49.538;8.352;2023-03-16T12:22:20;4.97;;;4.47;;
10535;SDS011;5316;49.538;8.352;2023-03-16T12:24:52;5.17;;;3.77;;
10535;SDS011;5316;49.538;8.352;2023-03-16T12:27:20;8.97;;;6.53;;
10535;SDS011;5316;49.538;8.352;2023-03-16T12:29:55;4.37;;;4.03;;
10535;SDS011;5316;49.538;8.352;2023-03-16T12:32:33;4.07;;;3.70;;
10535;SDS011;5316;49.538;8.352;2023-03-16T12:35:12;4.20;;;3.80;;
10535;SDS011;5316;49.538;8.352;2023-03-16T12:37:49;5.30;;;4.10;;
10535;SDS011;5316;49.538;8.352;2023-03-16T12:40:30;4.97;;;3.93;;
10535;SDS011;5316;49.538;8.352;2023-03-16T12:43:13;6.57;;;3.80;;
10535;SDS011;5316;49.538;8.352;2023-03-16T12:45:56;5.33;;;3.83;;
10535;SDS011;5316;49.538;8.352;2023-03-16T12:48:30;4.23;;;3.90;;
10535;SDS011;5316;49.538;8.352;2023-03-16T12:57:13;4.17;;;3.77;;
10535;SDS011;5316;49.538;8.352;2023-03-16T13:00:17;3.83;;;3.53;;
10535;SDS011;5316;49.538;8.352;2023-03-16T13:10:25;4.60;;;4.20;;
10535;SDS011;5316;49.538;8.352;2023-03-16T13:13:18;4.03;;;3.40;;
10535;SDS011;5316;49.538;8.352;2023-03-16T13:16:36;4.47;;;3.70;;
10535;SDS011;5316;49.538;8.352;2023-03-16T13:19:28;3.50;;;3.30;;
10535;SDS011;5316;49.538;8.352;2023-03-16T13:22:40;4.33;;;3.50;;
10535;SDS011;5316;49.538;8.352;2023-03-16T13:56:30;4.37;;;3.40;;
10535;SDS011;5316;49.538;8.352;2023-03-16T13:59:09;3.03;;;2.83;;
10535;SDS011;5316;49.538;8.352;2023-03-16T14:05:06;5.00;;;3.27;;
10535;SDS011;5316;49.538;8.352;2023-03-16T14:08:11;4.17;;;3.43;;
10535;SDS011;5316;49.538;8.352;2023-03-16T14:10:48;3.27;;;2.83;;
10535;SDS011;5316;49.538;8.352;2023-03-16T14:13:23;2.70;;;2.50;;
10535;SDS011;5316;49.538;8.352;2023-03-16T14:16:07;3.73;;;2.73;;
10535;SDS011;5316;49.538;8.352;2023-03-16T14:18:39;3.57;;;2.83;;
10535;SDS011;5316;49.538;8.352;2023-03-16T14:21:09;2.80;;;2.43;;
10535;SDS011;5316;49.538;8.352;2023-03-16T14:23:43;3.00;;;2.70;;
10535;SDS011;5316;49.538;8.352;2023-03-16T14:26:12;2.90;;;2.50;;
10535;SDS011;5316;49.538;8.352;2023-03-16T14:28:44;2.70;;;2.50;;
10535;SDS011;5316;49.538;8.352;2023-03-16T14:31:30;4.47;;;2.70;;
10535;SDS011;5316;49.538;8.352;2023-03-16T14:34:02;2.53;;;2.30;;
10535;SDS011;5316;49.538;8.352;2023-03-16T14:36:34;2.83;;;2.50;;
10535;SDS011;5316;49.538;8.352;2023-03-16T14:39:09;3.70;;;2.33;;
10535;SDS011;5316;49.538;8.352;2023-03-16T14:41:42;3.37;;;2.13;;
10535;SDS011;5316;49.538;8.352;2023-03-16T14:44:18;2.27;;;2.03;;
10535;SDS011;5316;49.538;8.352;2023-03-16T14:46:48;3.77;;;2.50;;
10535;SDS011;5316;49.538;8.352;2023-03-16T14:49:22;3.27;;;2.50;;
10535;SDS011;5316;49.538;8.352;2023-03-16T14:54:50;2.47;;;2.27;;
10535;SDS011;5316;49.538;8.352;2023-03-16T14:57:22;2.33;;;2.13;;
10535;SDS011;5316;49.538;8.352;2023-03-16T14:59:57;3.47;;;2.30;;
10535;SDS011;5316;49.538;8.352;2023-03-16T15:02:36;2.47;;;2.03;;
10535;SDS011;5316;49.538;8.352;2023-03-16T15:05:08;2.57;;;2.30;;
10535;SDS011;5316;49.538;8.352;2023-03-16T15:07:41;4.43;;;2.43;;
10535;SDS011;5316;49.538;8.352;2023-03-16T15:10:15;10.83;;;7.60;;
10535;SDS011;5316;49.538;8.352;2023-03-16T15:12:51;3.87;;;2.30;;
10535;SDS011;5316;49.538;8.352;2023-03-16T15:15:30;2.50;;;2.23;;
10535;SDS011;5316;49.538;8.352;2023-03-16T15:17:59;2.40;;;1.97;;
10535;SDS011;5316;49.538;8.352;2023-03-16T15:20:29;3.30;;;1.90;;
10535;SDS011;5316;49.538;8.352;2023-03-16T15:23:00;3.67;;;1.90;;
10535;SDS011;5316;49.538;8.352;2023-03-16T15:25:33;1.83;;;1.73;;
10535;SDS011;5316;49.538;8.352;2023-03-16T15:28:09;3.10;;;1.60;;
10535;SDS011;5316;49.538;8.352;2023-03-16T15:30:42;2.57;;;1.83;;
10535;SDS011;5316;49.538;8.352;2023-03-16T15:33:11;1.90;;;1.50;;
10535;SDS011;5316;49.538;8.352;2023-03-16T15:35:41;2.87;;;1.90;;
10535;SDS011;5316;49.538;8.352;2023-03-16T15:38:17;1.77;;;1.60;;
10535;SDS011;5316;49.538;8.352;2023-03-16T15:40:50;2.10;;;1.60;;
10535;SDS011;5316;49.538;8.352;2023-03-16T15:43:19;1.70;;;1.50;;
10535;SDS011;5316;49.538;8.352;2023-03-16T15:45:53;2.60;;;1.40;;
10535;SDS011;5316;49.538;8.352;2023-03-16T15:48:24;2.93;;;1.77;;
10535;SDS011;5316;49.538;8.352;2023-03-16T15:50:54;1.77;;;1.40;;
10535;SDS011;5316;49.538;8.352;2023-03-16T15:53:26;3.10;;;1.30;;
10535;SDS011;5316;49.538;8.352;2023-03-16T15:55:57;2.40;;;1.30;;
10535;SDS011;5316;49.538;8.352;2023-03-16T15:58:27;1.23;;;1.10;;
10535;SDS011;5316;49.538;8.352;2023-03-16T16:01:01;1.47;;;1.10;;
10535;SDS011;5316;49.538;8.352;2023-03-16T16:03:33;3.90;;;1.23;;
10535;SDS011;5316;49.538;8.352;2023-03-16T16:06:00;2.67;;;1.30;;
10535;SDS011;5316;49.538;8.352;2023-03-16T16:08:33;1.20;;;1.10;;
10535;SDS011;5316;49.538;8.352;2023-03-16T16:11:02;2.37;;;1.10;;
10535;SDS011;5316;49.538;8.352;2023-03-16T16:13:33;2.70;;;1.20;;
10535;SDS011;5316;49.538;8.352;2023-03-16T16:16:03;1.93;;;1.20;;
10535;SDS011;5316;49.538;8.352;2023-03-16T16:18:31;2.23;;;1.40;;
10535;SDS011;5316;49.538;8.352;2023-03-16T16:21:01;2.27;;;1.20;;
10535;SDS011;5316;49.538;8.352;2023-03-16T16:23:30;2.63;;;1.10;;
10535;SDS011;5316;49.538;8.352;2023-03-16T16:25:59;3.07;;;1.20;;
10535;SDS011;5316;49.538;8.352;2023-03-16T16:28:28;2.47;;;1.00;;
10535;SDS011;5316;49.538;8.352;2023-03-16T16:30:57;2.40;;;1.10;;
10535;SDS011;5316;49.538;8.352;2023-03-16T16:33:28;2.67;;;1.60;;
10535;SDS011;5316;49.538;8.352;2023-03-16T16:35:59;1.93;;;1.10;;
10535;SDS011;5316;49.538;8.352;2023-03-16T16:38:27;7.87;;;6.07;;
10535;SDS011;5316;49.538;8.352;2023-03-16T16:40:55;1.10;;;1.00;;
10535;SDS011;5316;49.538;8.352;2023-03-16T16:43:28;1.30;;;1.20;;
10535;SDS011;5316;49.538;8.352;2023-03-16T16:45:58;2.17;;;1.10;;
10535;SDS011;5316;49.538;8.352;2023-03-16T16:48:31;2.40;;;1.20;;
10535;SDS011;5316;49.538;8.352;2023-03-16T16:51:01;4.53;;;1.30;;
10535;SDS011;5316;49.538;8.352;2023-03-16T16:53:31;2.83;;;1.63;;
10535;SDS011;5316;49.538;8.352;2023-03-16T16:55:58;2.60;;;1.30;;
10535;SDS011;5316;49.538;8.352;2023-03-16T16:58:26;3.30;;;1.57;;
10535;SDS011;5316;49.538;8.352;2023-03-16T17:00:53;2.10;;;1.20;;
10535;SDS011;5316;49.538;8.352;2023-03-16T17:03:23;2.23;;;1.10;;
10535;SDS011;5316;49.538;8.352;2023-03-16T17:05:54;2.13;;;1.10;;
10535;SDS011;5316;49.538;8.352;2023-03-16T17:08:23;1.10;;;1.00;;
10535;SDS011;5316;49.538;8.352;2023-03-16T17:10:51;2.93;;;1.37;;
10535;SDS011;5316;49.538;8.352;2023-03-16T17:13:20;1.43;;;1.00;;
10535;SDS011;5316;49.538;8.352;2023-03-16T17:15:50;2.87;;;2.23;;
10535;SDS011;5316;49.538;8.352;2023-03-16T17:18:17;2.07;;;1.73;;
10535;SDS011;5316;49.538;8.352;2023-03-16T17:20:44;1.83;;;1.50;;
10535;SDS011;5316;49.538;8.352;2023-03-16T17:23:21;2.37;;;1.40;;
10535;SDS011;5316;49.538;8.352;2023-03-16T17:25:51;1.63;;;1.00;;
10535;SDS011;5316;49.538;8.352;2023-03-16T17:28:19;1.20;;;1.10;;
10535;SDS011;5316;49.538;8.352;2023-03-16T17:30:47;2.30;;;0.93;;
10535;SDS011;5316;49.538;8.352;2023-03-16T17:33:15;1.10;;;1.00;;
10535;SDS011;5316;49.538;8.352;2023-03-16T17:35:43;2.07;;;1.20;;
10535;SDS011;5316;49.538;8.352;2023-03-16T17:38:14;1.97;;;1.03;;
10535;SDS011;5316;49.538;8.352;2023-03-16T17:40:44;1.67;;;1.00;;
10535;SDS011;5316;49.538;8.352;2023-03-16T17:43:12;1.00;;;1.00;;
10535;SDS011;5316;49.538;8.352;2023-03-16T17:45:41;2.07;;;1.27;;
10535;SDS011;5316;49.538;8.352;2023-03-16T17:48:11;4.20;;;1.50;;
10535;SDS011;5316;49.538;8.352;2023-03-16T17:50:39;1.47;;;1.20;;
10535;SDS011;5316;49.538;8.352;2023-03-16T17:53:07;2.43;;;1.17;;
10535;SDS011;5316;49.538;8.352;2023-03-16T17:55:34;1.27;;;1.17;;
10535;SDS011;5316;49.538;8.352;2023-03-16T17:58:04;2.10;;;1.20;;
10535;SDS011;5316;49.538;8.352;2023-03-16T18:00:32;3.00;;;2.00;;
10535;SDS011;5316;49.538;8.352;2023-03-16T18:03:01;1.70;;;1.30;;
10535;SDS011;5316;49.538;8.352;2023-03-16T18:05:35;1.40;;;1.30;;
10535;SDS011;5316;49.538;8.352;2023-03-16T18:08:10;1.50;;;1.40;;
10535;SDS011;5316;49.538;8.352;2023-03-16T18:10:41;1.70;;;1.57;;
10535;SDS011;5316;49.538;8.352;2023-03-16T18:13:15;1.90;;;1.80;;
10535;SDS011;5316;49.538;8.352;2023-03-16T18:29:13;3.50;;;1.80;;
10535;SDS011;5316;49.538;8.352;2023-03-16T18:31:40;5.30;;;2.07;;
10535;SDS011;5316;49.538;8.352;2023-03-16T18:34:08;2.70;;;1.73;;
10535;SDS011;5316;49.538;8.352;2023-03-16T18:36:45;6.63;;;5.30;;
10535;SDS011;5316;49.538;8.352;2023-03-16T18:39:14;6.77;;;2.60;;
10535;SDS011;5316;49.538;8.352;2023-03-16T18:41:44;3.53;;;2.30;;
10535;SDS011;5316;49.538;8.352;2023-03-16T18:44:15;3.60;;;1.63;;
10535;SDS011;5316;49.538;8.352;2023-03-16T18:46:43;2.80;;;1.93;;
10535;SDS011;5316;49.538;8.352;2023-03-16T19:03:22;3.47;;;2.90;;
10535;SDS011;5316;49.538;8.352;2023-03-16T21:56:57;7.57;;;5.27;;
